createdAt,value
2022-11-10T00:00:32.140Z,999.2187925160001
2022-11-10T00:01:31.574Z,999.2187925160001
2022-11-10T00:02:32.136Z,999.421975244
2022-11-10T00:03:32.171Z,999.421975244
2022-11-10T00:04:32.193Z,999.2187925160001
2022-11-10T00:05:31.547Z,999.2187925160001
2022-11-10T00:06:32.221Z,999.32038388
2022-11-10T00:07:32.217Z,999.32038388
2022-11-10T00:08:32.213Z,999.32038388
2022-11-10T00:09:31.493Z,999.32038388
2022-11-10T00:10:32.161Z,999.523566608
2022-11-10T00:11:32.176Z,999.421975244
2022-11-10T00:12:32.177Z,999.32038388
2022-11-10T00:13:31.493Z,999.32038388
2022-11-10T00:14:32.152Z,999.421975244
2022-11-10T00:15:32.142Z,999.2187925160001
2022-11-10T00:16:32.207Z,999.2187925160001
2022-11-10T00:17:31.653Z,999.2187925160001
2022-11-10T00:18:32.167Z,999.523566608
2022-11-10T00:19:33.636Z,999.2187925160001
2022-11-10T00:20:32.144Z,999.523566608
2022-11-10T00:21:31.551Z,999.523566608
2022-11-10T00:22:32.167Z,999.32038388
2022-11-10T00:23:32.178Z,999.32038388
2022-11-10T00:24:32.173Z,999.421975244
2022-11-10T00:25:31.469Z,999.421975244
2022-11-10T00:26:32.165Z,999.32038388
2022-11-10T00:27:32.142Z,999.32038388
2022-11-10T00:28:32.151Z,999.2187925160001
2022-11-10T00:29:31.553Z,999.2187925160001
2022-11-10T00:30:32.159Z,999.2187925160001
2022-11-10T00:31:32.164Z,999.2187925160001
2022-11-10T00:32:32.166Z,999.32038388
2022-11-10T00:33:31.492Z,999.32038388
2022-11-10T00:34:32.159Z,999.421975244
2022-11-10T00:35:32.167Z,999.421975244
2022-11-10T00:36:32.313Z,999.421975244
2022-11-10T00:37:31.489Z,999.421975244
2022-11-10T00:38:32.175Z,999.32038388
2022-11-10T00:39:32.247Z,999.32038388
2022-11-10T00:40:32.170Z,999.32038388
2022-11-10T00:41:31.577Z,999.32038388
2022-11-10T00:42:32.159Z,999.7267493359999
2022-11-10T00:43:32.543Z,999.6251579719999
2022-11-10T00:44:32.154Z,999.421975244
2022-11-10T00:45:31.451Z,999.421975244
2022-11-10T00:46:32.171Z,999.523566608
2022-11-10T00:47:32.305Z,999.523566608
2022-11-10T00:48:32.159Z,999.421975244
2022-11-10T00:49:31.473Z,999.421975244
2022-11-10T00:50:32.185Z,999.6251579719999
2022-11-10T00:51:32.161Z,999.523566608
2022-11-10T00:52:32.162Z,999.523566608
2022-11-10T00:53:31.465Z,999.523566608
2022-11-10T00:54:32.133Z,999.523566608
2022-11-10T00:55:32.161Z,999.523566608
2022-11-10T00:56:32.173Z,999.523566608
2022-11-10T00:57:31.407Z,999.523566608
2022-11-10T00:58:32.164Z,999.6251579719999
2022-11-10T00:59:32.138Z,999.421975244
2022-11-10T01:00:32.171Z,999.523566608
2022-11-10T01:01:31.516Z,999.523566608
2022-11-10T01:02:32.165Z,999.421975244
2022-11-10T01:03:32.316Z,999.6251579719999
2022-11-10T01:04:32.123Z,999.6251579719999
2022-11-10T01:05:31.510Z,999.6251579719999
2022-11-10T01:06:32.161Z,999.6251579719999
2022-11-10T01:07:32.163Z,999.6251579719999
2022-11-10T01:08:32.215Z,999.421975244
2022-11-10T01:09:32.493Z,999.421975244
2022-11-10T01:10:32.154Z,999.6251579719999
2022-11-10T01:11:32.149Z,999.6251579719999
2022-11-10T01:12:32.176Z,999.523566608
2022-11-10T01:13:31.492Z,999.523566608
2022-11-10T01:14:32.173Z,999.523566608
2022-11-10T01:15:32.129Z,999.421975244
2022-11-10T01:16:32.120Z,999.7267493359999
2022-11-10T01:17:31.470Z,999.7267493359999
2022-11-10T01:18:32.129Z,999.421975244
2022-11-10T01:19:32.149Z,999.523566608
2022-11-10T01:20:32.122Z,999.6251579719999
2022-11-10T01:21:31.470Z,999.6251579719999
2022-11-10T01:22:32.143Z,999.421975244
2022-11-10T01:23:32.148Z,999.6251579719999
2022-11-10T01:24:32.258Z,999.523566608
2022-11-10T01:25:31.472Z,999.523566608
2022-11-10T01:26:32.229Z,999.32038388
2022-11-10T01:27:32.169Z,999.6251579719999
2022-11-10T01:28:32.126Z,999.523566608
2022-11-10T01:29:32.227Z,999.6251579719999
2022-11-10T01:30:32.161Z,999.523566608
2022-11-10T01:31:32.134Z,999.32038388
2022-11-10T01:32:32.111Z,999.6251579719999
2022-11-10T01:33:32.153Z,999.2187925160001
2022-11-10T01:34:32.162Z,999.7267493359999
2022-11-10T01:35:32.128Z,999.6251579719999
2022-11-10T01:36:32.152Z,999.6251579719999
2022-11-10T01:37:31.617Z,999.6251579719999
2022-11-10T01:38:32.168Z,999.6251579719999
2022-11-10T01:39:32.294Z,999.421975244
2022-11-10T01:40:32.417Z,999.6251579719999
2022-11-10T01:41:31.734Z,999.6251579719999
2022-11-10T01:42:32.244Z,999.523566608
2022-11-10T01:43:32.310Z,999.523566608
2022-11-10T01:44:32.349Z,999.421975244
2022-11-10T01:45:31.612Z,999.421975244
2022-11-10T01:46:32.289Z,999.7267493359999
2022-11-10T01:47:32.240Z,999.523566608
2022-11-10T01:48:32.269Z,999.7267493359999
2022-11-10T01:49:32.238Z,999.6251579719999
2022-11-10T01:50:32.159Z,999.7267493359999
2022-11-10T01:51:32.136Z,999.523566608
2022-11-10T01:52:32.138Z,999.7267493359999
2022-11-10T01:53:32.149Z,999.7267493359999
2022-11-10T01:54:32.124Z,999.6251579719999
2022-11-10T01:55:32.139Z,999.8283407
2022-11-10T01:56:32.131Z,999.6251579719999
2022-11-10T01:57:32.227Z,999.6251579719999
2022-11-10T01:58:32.153Z,999.7267493359999
2022-11-10T01:59:32.135Z,999.6251579719999
2022-11-10T02:00:32.233Z,999.6251579719999
2022-11-10T02:01:32.153Z,999.6251579719999
2022-11-10T02:02:32.171Z,999.7267493359999
2022-11-10T02:03:32.184Z,999.6251579719999
2022-11-10T02:04:32.115Z,999.7267493359999
2022-11-10T02:05:32.139Z,999.6251579719999
2022-11-10T02:06:32.174Z,999.8283407
2022-11-10T02:07:32.168Z,999.8283407
2022-11-10T02:08:32.138Z,999.7267493359999
2022-11-10T02:09:32.474Z,1000.0315234279999
2022-11-10T02:10:32.139Z,1000.0315234279999
2022-11-10T02:11:32.143Z,999.7267493359999
2022-11-10T02:12:32.123Z,999.7267493359999
2022-11-10T02:13:32.163Z,999.8283407
2022-11-10T02:14:32.126Z,999.9299320639999
2022-11-10T02:15:32.139Z,999.9299320639999
2022-11-10T02:16:32.120Z,999.6251579719999
2022-11-10T02:17:32.196Z,999.8283407
2022-11-10T02:18:32.128Z,999.9299320639999
2022-11-10T02:19:32.483Z,1000.0315234279999
2022-11-10T02:20:32.147Z,999.7267493359999
2022-11-10T02:21:32.155Z,999.7267493359999
2022-11-10T02:22:32.119Z,999.8283407
2022-11-10T02:23:32.123Z,999.9299320639999
2022-11-10T02:24:32.139Z,999.7267493359999
2022-11-10T02:25:32.151Z,999.8283407
2022-11-10T02:26:32.092Z,1000.0315234279999
2022-11-10T02:27:32.135Z,1000.0315234279999
2022-11-10T02:28:32.157Z,999.7267493359999
2022-11-10T02:29:32.154Z,999.8283407
2022-11-10T02:30:32.128Z,999.7267493359999
2022-11-10T02:31:32.111Z,999.7267493359999
2022-11-10T02:32:32.153Z,999.7267493359999
2022-11-10T02:33:32.164Z,999.7267493359999
2022-11-10T02:34:32.126Z,999.9299320639999
2022-11-10T02:35:32.126Z,999.9299320639999
2022-11-10T02:36:32.213Z,999.9299320639999
2022-11-10T02:37:32.146Z,999.9299320639999
2022-11-10T02:38:32.111Z,999.8283407
2022-11-10T02:39:32.145Z,1000.0315234279999
2022-11-10T02:40:32.137Z,1000.0315234279999
2022-11-10T02:41:32.142Z,999.7267493359999
2022-11-10T02:42:32.155Z,999.8283407
2022-11-10T02:43:32.180Z,999.8283407
2022-11-10T02:44:32.184Z,1000.0315234279999
2022-11-10T02:45:32.134Z,999.8283407
2022-11-10T02:46:32.224Z,999.9299320639999
2022-11-10T02:47:32.190Z,999.9299320639999
2022-11-10T02:48:32.154Z,999.9299320639999
2022-11-10T02:49:32.120Z,999.8283407
2022-11-10T02:50:32.120Z,1000.0315234279999
2022-11-10T02:51:32.123Z,1000.133114792
2022-11-10T02:52:32.184Z,1000.0315234279999
2022-11-10T02:53:32.235Z,999.9299320639999
2022-11-10T02:54:32.104Z,1000.0315234279999
2022-11-10T02:55:32.139Z,999.9299320639999
2022-11-10T02:56:32.215Z,1000.0315234279999
2022-11-10T02:57:32.146Z,1000.0315234279999
2022-11-10T02:58:32.118Z,1000.133114792
2022-11-10T02:59:32.535Z,1000.133114792
2022-11-10T03:00:32.144Z,1000.133114792
2022-11-10T03:01:32.169Z,1000.0315234279999
2022-11-10T03:02:32.431Z,1000.133114792
2022-11-10T03:03:32.145Z,1000.3362975199999
2022-11-10T03:04:32.219Z,1000.133114792
2022-11-10T03:05:32.125Z,1000.133114792
2022-11-10T03:06:32.182Z,1000.133114792
2022-11-10T03:07:32.201Z,1000.3362975199999
2022-11-10T03:08:32.132Z,1000.2347061559999
2022-11-10T03:09:32.127Z,1000.0315234279999
2022-11-10T03:10:32.103Z,1000.133114792
2022-11-10T03:11:32.666Z,1000.2347061559999
2022-11-10T03:12:32.334Z,1000.2347061559999
2022-11-10T03:13:45.257Z,1000.133114792
2022-11-10T03:14:32.254Z,1000.133114792
2022-11-10T03:15:32.216Z,1000.2347061559999
2022-11-10T03:16:32.196Z,1000.2347061559999
2022-11-10T03:17:32.251Z,1000.133114792
2022-11-10T03:18:32.252Z,1000.3362975199999
2022-11-10T03:19:32.946Z,1000.2347061559999
2022-11-10T03:20:32.124Z,1000.133114792
2022-11-10T03:21:32.161Z,1000.133114792
2022-11-10T03:22:32.233Z,1000.133114792
2022-11-10T03:23:32.325Z,1000.133114792
2022-11-10T03:24:32.211Z,1000.133114792
2022-11-10T03:25:32.146Z,1000.2347061559999
2022-11-10T03:26:32.197Z,1000.133114792
2022-11-10T03:27:32.198Z,1000.2347061559999
2022-11-10T03:28:32.286Z,1000.3362975199999
2022-11-10T03:29:33.229Z,1000.0315234279999
2022-11-10T03:30:32.120Z,1000.3362975199999
2022-11-10T03:31:32.285Z,1000.2347061559999
2022-11-10T03:32:32.279Z,1000.2347061559999
2022-11-10T03:33:32.200Z,1000.437888884
2022-11-10T03:34:32.205Z,1000.133114792
2022-11-10T03:35:32.198Z,1000.437888884
2022-11-10T03:36:32.121Z,1000.3362975199999
2022-11-10T03:37:32.152Z,1000.2347061559999
2022-11-10T03:38:32.100Z,1000.3362975199999
2022-11-10T03:39:32.215Z,1000.3362975199999
2022-11-10T03:40:45.504Z,1000.133114792
2022-11-10T03:41:32.260Z,1000.437888884
2022-11-10T03:42:32.135Z,1000.2347061559999
2022-11-10T03:43:32.390Z,1000.3362975199999
2022-11-10T03:44:32.160Z,1000.3362975199999
2022-11-10T03:45:32.149Z,1000.437888884
2022-11-10T03:46:32.086Z,1000.437888884
2022-11-10T03:47:32.164Z,1000.539480248
2022-11-10T03:48:32.127Z,1000.539480248
2022-11-10T03:49:32.597Z,1000.3362975199999
2022-11-10T03:50:32.090Z,1000.437888884
2022-11-10T03:51:32.264Z,1000.539480248
2022-11-10T03:52:33.373Z,1000.3362975199999
2022-11-10T03:53:32.132Z,1000.539480248
2022-11-10T03:54:32.110Z,1000.437888884
2022-11-10T03:55:32.136Z,1000.3362975199999
2022-11-10T03:56:32.178Z,1000.708799188
2022-11-10T03:57:32.131Z,1000.437888884
2022-11-10T03:58:32.117Z,1000.6072078239999
2022-11-10T03:59:32.130Z,1000.708799188
2022-11-10T04:00:32.228Z,1000.6072078239999
2022-11-10T04:01:32.185Z,1000.437888884
2022-11-10T04:02:32.097Z,1000.539480248
2022-11-10T04:03:32.120Z,1000.539480248
2022-11-10T04:04:32.364Z,1000.6072078239999
2022-11-10T04:05:32.172Z,1000.6072078239999
2022-11-10T04:06:32.184Z,1000.539480248
2022-11-10T04:07:32.141Z,1000.6072078239999
2022-11-10T04:08:32.110Z,1000.3362975199999
2022-11-10T04:09:32.090Z,1000.6072078239999
2022-11-10T04:10:32.163Z,1000.539480248
2022-11-10T04:11:32.139Z,1000.6072078239999
2022-11-10T04:12:32.142Z,1000.6072078239999
2022-11-10T04:13:32.093Z,1000.708799188
2022-11-10T04:14:32.121Z,1000.437888884
2022-11-10T04:15:32.145Z,1000.6072078239999
2022-11-10T04:16:32.152Z,1000.437888884
2022-11-10T04:17:32.108Z,1000.6072078239999
2022-11-10T04:18:32.254Z,1000.437888884
2022-11-10T04:19:32.577Z,1000.539480248
2022-11-10T04:20:32.186Z,1000.437888884
2022-11-10T04:21:32.091Z,1000.437888884
2022-11-10T04:22:32.135Z,1000.6072078239999
2022-11-10T04:23:32.110Z,1000.6072078239999
2022-11-10T04:24:32.176Z,1000.6072078239999
2022-11-10T04:25:32.092Z,1000.539480248
2022-11-10T04:26:32.122Z,1000.708799188
2022-11-10T04:27:32.158Z,1000.6072078239999
2022-11-10T04:28:32.130Z,1000.708799188
2022-11-10T04:29:32.708Z,1000.539480248
2022-11-10T04:30:32.138Z,1000.539480248
2022-11-10T04:31:32.280Z,1000.539480248
2022-11-10T04:32:32.125Z,1000.708799188
2022-11-10T04:33:32.115Z,1000.6072078239999
2022-11-10T04:34:32.148Z,1000.6072078239999
2022-11-10T04:35:32.233Z,1000.6072078239999
2022-11-10T04:36:32.154Z,1000.6072078239999
2022-11-10T04:37:32.083Z,1000.6072078239999
2022-11-10T04:38:32.114Z,1000.708799188
2022-11-10T04:39:32.118Z,1000.8103905519998
2022-11-10T04:40:32.105Z,1000.8103905519998
2022-11-10T04:41:32.119Z,1000.8103905519998
2022-11-10T04:42:32.126Z,1000.6072078239999
2022-11-10T04:43:32.150Z,1000.708799188
2022-11-10T04:44:32.127Z,1000.708799188
2022-11-10T04:45:32.112Z,1000.6072078239999
2022-11-10T04:46:32.096Z,1000.911981916
2022-11-10T04:47:32.138Z,1000.539480248
2022-11-10T04:48:32.153Z,1000.6072078239999
2022-11-10T04:49:32.093Z,1000.708799188
2022-11-10T04:50:32.142Z,1000.6072078239999
2022-11-10T04:51:32.247Z,1000.539480248
2022-11-10T04:52:32.119Z,1000.6072078239999
2022-11-10T04:53:32.083Z,1000.6072078239999
2022-11-10T04:54:32.126Z,1000.708799188
2022-11-10T04:55:32.103Z,1000.6072078239999
2022-11-10T04:56:32.141Z,1000.708799188
2022-11-10T04:57:32.118Z,1000.6072078239999
2022-11-10T04:58:32.171Z,1000.6072078239999
2022-11-10T04:59:32.241Z,1000.8103905519998
2022-11-10T05:00:32.204Z,1000.8103905519998
2022-11-10T05:01:32.128Z,1000.708799188
2022-11-10T05:02:35.498Z,1000.708799188
2022-11-10T05:03:32.143Z,1000.8103905519998
2022-11-10T05:04:32.156Z,1000.911981916
2022-11-10T05:05:32.205Z,1000.911981916
2022-11-10T05:06:32.184Z,1000.8103905519998
2022-11-10T05:07:32.122Z,1000.8103905519998
2022-11-10T05:08:32.305Z,1000.539480248
2022-11-10T05:09:32.890Z,1000.911981916
2022-11-10T05:10:32.151Z,1000.8103905519998
2022-11-10T05:11:32.139Z,1001.01357328
2022-11-10T05:12:32.112Z,1000.911981916
2022-11-10T05:13:32.090Z,1000.911981916
2022-11-10T05:14:32.219Z,1000.911981916
2022-11-10T05:15:32.142Z,1001.01357328
2022-11-10T05:16:32.154Z,1001.01357328
2022-11-10T05:17:32.105Z,1001.01357328
2022-11-10T05:18:32.111Z,1001.1151646439998
2022-11-10T05:19:32.737Z,1001.1151646439998
2022-11-10T05:20:32.115Z,1001.01357328
2022-11-10T05:21:32.086Z,1000.911981916
2022-11-10T05:22:32.123Z,1001.1151646439998
2022-11-10T05:23:32.166Z,1000.911981916
2022-11-10T05:24:32.102Z,1001.216756008
2022-11-10T05:25:32.165Z,1001.216756008
2022-11-10T05:26:32.136Z,1001.1151646439998
2022-11-10T05:27:32.117Z,1001.01357328
2022-11-10T05:28:32.138Z,1001.01357328
2022-11-10T05:29:32.098Z,1001.1151646439998
2022-11-10T05:30:32.176Z,1001.216756008
2022-11-10T05:31:32.144Z,1001.01357328
2022-11-10T05:32:32.112Z,1001.216756008
2022-11-10T05:33:32.094Z,1001.01357328
2022-11-10T05:34:32.233Z,1001.1151646439998
2022-11-10T05:35:32.130Z,1001.216756008
2022-11-10T05:36:32.160Z,1001.216756008
2022-11-10T05:37:32.085Z,1001.216756008
2022-11-10T05:38:32.169Z,1001.318347372
2022-11-10T05:39:32.202Z,1001.318347372
2022-11-10T05:40:32.153Z,1001.5215301
2022-11-10T05:41:32.158Z,1001.5215301
2022-11-10T05:42:32.171Z,1001.5215301
2022-11-10T05:43:32.110Z,1001.419938736
2022-11-10T05:44:32.214Z,1001.318347372
2022-11-10T05:45:32.085Z,1001.419938736
2022-11-10T05:46:32.128Z,1001.318347372
2022-11-10T05:47:32.138Z,1001.318347372
2022-11-10T05:48:32.122Z,1001.5215301
2022-11-10T05:49:32.105Z,1001.216756008
2022-11-10T05:50:32.124Z,1001.318347372
2022-11-10T05:51:32.214Z,1001.5215301
2022-11-10T05:52:32.132Z,1001.5215301
2022-11-10T05:53:32.085Z,1001.318347372
2022-11-10T05:54:32.118Z,1001.419938736
2022-11-10T05:55:32.123Z,1001.318347372
2022-11-10T05:56:32.091Z,1001.419938736
2022-11-10T05:57:32.078Z,1001.5215301
2022-11-10T05:58:32.107Z,1001.318347372
2022-11-10T05:59:32.375Z,1001.419938736
2022-11-10T06:00:32.114Z,1001.5215301
2022-11-10T06:01:32.121Z,1001.724712828
2022-11-10T06:02:32.101Z,1001.724712828
2022-11-10T06:03:32.248Z,1001.724712828
2022-11-10T06:04:32.112Z,1001.826304192
2022-11-10T06:05:32.085Z,1001.826304192
2022-11-10T06:06:32.158Z,1001.724712828
2022-11-10T06:07:32.168Z,1001.826304192
2022-11-10T06:08:32.130Z,1001.927895556
2022-11-10T06:09:32.977Z,1002.0294869200001
2022-11-10T06:10:32.130Z,1001.724712828
2022-11-10T06:11:32.108Z,1001.623121464
2022-11-10T06:12:32.155Z,1001.927895556
2022-11-10T06:13:32.103Z,1001.927895556
2022-11-10T06:14:32.118Z,1001.826304192
2022-11-10T06:15:32.075Z,1001.927895556
2022-11-10T06:16:32.115Z,1001.623121464
2022-11-10T06:17:32.094Z,1001.724712828
2022-11-10T06:18:32.114Z,1001.927895556
2022-11-10T06:19:32.270Z,1001.826304192
2022-11-10T06:20:32.114Z,1001.826304192
2022-11-10T06:21:32.086Z,1002.131078284
2022-11-10T06:22:32.098Z,1002.0294869200001
2022-11-10T06:23:32.081Z,1001.826304192
2022-11-10T06:24:32.108Z,1001.826304192
2022-11-10T06:25:32.123Z,1002.0294869200001
2022-11-10T06:26:32.114Z,1001.927895556
2022-11-10T06:27:32.088Z,1002.0294869200001
2022-11-10T06:28:32.102Z,1002.3342610120001
2022-11-10T06:29:32.098Z,1002.232669648
2022-11-10T06:30:32.101Z,1002.0294869200001
2022-11-10T06:31:32.102Z,1002.232669648
2022-11-10T06:32:32.135Z,1002.131078284
2022-11-10T06:33:32.096Z,1002.131078284
2022-11-10T06:34:32.100Z,1002.3342610120001
2022-11-10T06:35:32.114Z,1002.232669648
2022-11-10T06:36:32.132Z,1002.5374437400001
2022-11-10T06:37:32.135Z,1002.435852376
2022-11-10T06:38:32.095Z,1002.5374437400001
2022-11-10T06:39:32.756Z,1002.3342610120001
2022-11-10T06:40:32.130Z,1002.435852376
2022-11-10T06:41:32.132Z,1002.435852376
2022-11-10T06:42:32.121Z,1002.5374437400001
2022-11-10T06:43:32.114Z,1002.5374437400001
2022-11-10T06:44:32.233Z,1002.6390351040001
2022-11-10T06:45:32.115Z,1002.435852376
2022-11-10T06:46:32.129Z,1002.5374437400001
2022-11-10T06:47:32.097Z,1002.5374437400001
2022-11-10T06:48:32.276Z,1002.435852376
2022-11-10T06:49:32.209Z,1002.5374437400001
2022-11-10T06:50:32.198Z,1002.5374437400001
2022-11-10T06:51:32.090Z,1002.808354044
2022-11-10T06:52:32.124Z,1002.9099454079999
2022-11-10T06:53:32.386Z,1002.5374437400001
2022-11-10T06:54:32.100Z,1002.6390351040001
2022-11-10T06:55:32.132Z,1002.70676268
2022-11-10T06:56:32.101Z,1002.6390351040001
2022-11-10T06:57:32.105Z,1002.6390351040001
2022-11-10T06:58:32.125Z,1002.3342610120001
2022-11-10T06:59:32.104Z,1002.5374437400001
2022-11-10T07:00:32.113Z,1002.3342610120001
2022-11-10T07:01:32.153Z,1002.5374437400001
2022-11-10T07:02:32.164Z,1002.6390351040001
2022-11-10T07:03:32.289Z,1002.9099454079999
2022-11-10T07:04:32.100Z,1002.70676268
2022-11-10T07:05:32.109Z,1002.5374437400001
2022-11-10T07:06:32.224Z,1002.6390351040001
2022-11-10T07:07:32.087Z,1002.70676268
2022-11-10T07:08:32.126Z,1002.808354044
2022-11-10T07:09:33.036Z,1002.6390351040001
2022-11-10T07:10:32.144Z,1002.70676268
2022-11-10T07:11:32.173Z,1002.70676268
2022-11-10T07:12:32.081Z,1002.808354044
2022-11-10T07:13:32.114Z,1002.6390351040001
2022-11-10T07:14:32.093Z,1002.70676268
2022-11-10T07:15:32.101Z,1002.808354044
2022-11-10T07:16:32.095Z,1002.6390351040001
2022-11-10T07:17:32.112Z,1002.6390351040001
2022-11-10T07:18:32.111Z,1002.808354044
2022-11-10T07:19:32.661Z,1002.808354044
2022-11-10T07:20:32.097Z,1002.6390351040001
2022-11-10T07:21:32.117Z,1002.808354044
2022-11-10T07:22:32.082Z,1002.808354044
2022-11-10T07:23:32.225Z,1002.70676268
2022-11-10T07:24:32.099Z,1002.808354044
2022-11-10T07:25:32.118Z,1002.9099454079999
2022-11-10T07:26:32.087Z,1003.011536772
2022-11-10T07:27:32.116Z,1002.9099454079999
2022-11-10T07:28:32.111Z,1002.808354044
2022-11-10T07:29:32.651Z,1003.011536772
2022-11-10T07:30:32.237Z,1003.011536772
2022-11-10T07:31:32.086Z,1002.808354044
2022-11-10T07:32:32.106Z,1002.9099454079999
2022-11-10T07:33:32.124Z,1002.9099454079999
2022-11-10T07:34:32.082Z,1003.011536772
2022-11-10T07:35:32.110Z,1003.011536772
2022-11-10T07:36:32.105Z,1002.9099454079999
2022-11-10T07:37:32.122Z,1003.011536772
2022-11-10T07:38:32.081Z,1003.011536772
2022-11-10T07:39:32.114Z,1003.011536772
2022-11-10T07:40:32.233Z,1003.011536772
2022-11-10T07:41:32.121Z,1003.2147194999999
2022-11-10T07:42:32.119Z,1003.2147194999999
2022-11-10T07:43:32.112Z,1003.2147194999999
2022-11-10T07:44:32.089Z,1003.316310864
2022-11-10T07:45:32.080Z,1003.417902228
2022-11-10T07:46:32.097Z,1003.316310864
2022-11-10T07:47:32.111Z,1003.2147194999999
2022-11-10T07:48:32.077Z,1003.316310864
2022-11-10T07:49:32.109Z,1003.316310864
2022-11-10T07:50:32.071Z,1003.316310864
2022-11-10T07:51:32.123Z,1003.316310864
2022-11-10T07:52:32.104Z,1003.2147194999999
2022-11-10T07:53:32.100Z,1003.2147194999999
2022-11-10T07:54:32.065Z,1003.417902228
2022-11-10T07:55:32.193Z,1003.316310864
2022-11-10T07:56:32.273Z,1003.2147194999999
2022-11-10T07:57:32.412Z,1003.316310864
2022-11-10T07:58:32.074Z,1003.621084956
2022-11-10T07:59:32.992Z,1003.316310864
2022-11-10T08:00:32.168Z,1003.316310864
2022-11-10T08:01:32.202Z,1003.417902228
2022-11-10T08:02:32.092Z,1003.621084956
2022-11-10T08:03:32.111Z,1003.5194935919999
2022-11-10T08:04:32.122Z,1003.316310864
2022-11-10T08:05:32.121Z,1003.5194935919999
2022-11-10T08:06:36.010Z,1003.5194935919999
2022-11-10T08:07:32.151Z,1003.417902228
2022-11-10T08:08:32.125Z,1003.5194935919999
2022-11-10T08:09:32.110Z,1003.417902228
2022-11-10T08:10:32.219Z,1003.417902228
2022-11-10T08:11:32.137Z,1003.417902228
2022-11-10T08:12:33.783Z,1003.5194935919999
2022-11-10T08:13:32.096Z,1003.417902228
2022-11-10T08:14:32.101Z,1003.417902228
2022-11-10T08:15:32.121Z,1003.5194935919999
2022-11-10T08:16:32.133Z,1003.417902228
2022-11-10T08:17:32.110Z,1003.72267632
2022-11-10T08:18:35.248Z,1003.5194935919999
2022-11-10T08:19:32.079Z,1003.621084956
2022-11-10T08:20:32.127Z,1003.417902228
2022-11-10T08:21:32.112Z,1003.621084956
2022-11-10T08:22:32.148Z,1003.621084956
2022-11-10T08:23:32.092Z,1003.621084956
2022-11-10T08:24:32.106Z,1003.621084956
2022-11-10T08:25:35.079Z,1003.5194935919999
2022-11-10T08:26:32.240Z,1003.72267632
2022-11-10T08:27:32.059Z,1003.5194935919999
2022-11-10T08:28:32.081Z,1003.621084956
2022-11-10T08:29:32.113Z,1003.5194935919999
2022-11-10T08:30:32.113Z,1003.417902228
2022-11-10T08:31:32.064Z,1003.316310864
2022-11-10T08:32:32.111Z,1003.5194935919999
2022-11-10T08:33:32.120Z,1003.5194935919999
2022-11-10T08:34:32.250Z,1003.72267632
2022-11-10T08:35:32.074Z,1003.5194935919999
2022-11-10T08:36:32.129Z,1003.5194935919999
2022-11-10T08:37:32.112Z,1003.5194935919999
2022-11-10T08:38:32.104Z,1003.5194935919999
2022-11-10T08:39:38.903Z,1003.621084956
2022-11-10T08:40:32.093Z,1003.72267632
2022-11-10T08:41:32.108Z,1003.5194935919999
2022-11-10T08:42:32.207Z,1003.417902228
2022-11-10T08:43:32.054Z,1003.316310864
2022-11-10T08:44:32.074Z,1003.5194935919999
2022-11-10T08:45:32.080Z,1003.621084956
2022-11-10T08:46:32.102Z,1003.316310864
2022-11-10T08:47:32.065Z,1003.2147194999999
2022-11-10T08:48:32.113Z,1003.621084956
2022-11-10T08:49:32.898Z,1003.417902228
2022-11-10T08:50:32.094Z,1003.621084956
2022-11-10T08:51:36.310Z,1003.5194935919999
2022-11-10T08:52:32.150Z,1003.417902228
2022-11-10T08:53:32.159Z,1003.72267632
2022-11-10T08:54:32.111Z,1003.417902228
2022-11-10T08:55:32.070Z,1003.72267632
2022-11-10T08:56:32.113Z,1003.5194935919999
2022-11-10T08:57:32.233Z,1003.925859048
2022-11-10T08:58:32.210Z,1003.621084956
2022-11-10T08:59:32.096Z,1003.316310864
2022-11-10T09:00:32.107Z,1003.316310864
2022-11-10T09:01:32.113Z,1003.417902228
2022-11-10T09:02:32.117Z,1003.5194935919999
2022-11-10T09:03:32.218Z,1003.417902228
2022-11-10T09:04:32.201Z,1003.316310864
2022-11-10T09:05:32.090Z,1003.8242676840001
2022-11-10T09:06:32.139Z,1003.621084956
2022-11-10T09:07:32.048Z,1003.417902228
2022-11-10T09:08:32.135Z,1003.316310864
2022-11-10T09:09:32.099Z,1003.621084956
2022-11-10T09:10:32.058Z,1003.621084956
2022-11-10T09:11:32.085Z,1003.316310864
2022-11-10T09:12:32.103Z,1003.5194935919999
2022-11-10T09:13:32.356Z,1003.417902228
2022-11-10T09:14:32.075Z,1003.5194935919999
2022-11-10T09:15:32.101Z,1003.5194935919999
2022-11-10T09:16:32.108Z,1003.5194935919999
2022-11-10T09:17:32.106Z,1003.316310864
2022-11-10T09:18:32.108Z,1003.5194935919999
2022-11-10T09:19:32.638Z,1003.316310864
2022-11-10T09:20:32.272Z,1003.5194935919999
2022-11-10T09:21:32.080Z,1003.72267632
2022-11-10T09:22:32.054Z,1003.621084956
2022-11-10T09:23:32.081Z,1003.5194935919999
2022-11-10T09:24:32.249Z,1003.5194935919999
2022-11-10T09:25:32.312Z,1003.621084956
2022-11-10T09:26:32.038Z,1003.621084956
2022-11-10T09:27:32.083Z,1003.5194935919999
2022-11-10T09:28:32.115Z,1003.621084956
2022-11-10T09:29:32.167Z,1003.5194935919999
2022-11-10T09:30:32.148Z,1003.621084956
2022-11-10T09:31:32.088Z,1003.417902228
2022-11-10T09:32:32.185Z,1003.621084956
2022-11-10T09:33:32.091Z,1003.621084956
2022-11-10T09:34:32.097Z,1003.8242676840001
2022-11-10T09:35:32.091Z,1003.72267632
2022-11-10T09:36:32.198Z,1003.8242676840001
2022-11-10T09:37:32.107Z,1003.8242676840001
2022-11-10T09:38:32.065Z,1003.8242676840001
2022-11-10T09:39:32.648Z,1003.8242676840001